sensor_id;sensor_type;location;lat;lon;timestamp;P1;durP1;ratioP1;P2;durP2;ratioP2
64291;SDS011;50628;51.008;13.658;2023-02-15T00:03:35;53.30;;;28.60;;
64291;SDS011;50628;51.008;13.658;2023-02-15T00:08:37;53.30;;;29.03;;
64291;SDS011;50628;51.008;13.658;2023-02-15T00:13:39;44.23;;;26.27;;
64291;SDS011;50628;51.008;13.658;2023-02-15T00:18:43;37.27;;;24.27;;
64291;SDS011;50628;51.008;13.658;2023-02-15T00:23:45;36.53;;;24.30;;
64291;SDS011;50628;51.008;13.658;2023-02-15T00:28:47;40.17;;;24.13;;
64291;SDS011;50628;51.008;13.658;2023-02-15T00:33:51;37.97;;;23.20;;
64291;SDS011;50628;51.008;13.658;2023-02-15T00:38:52;39.13;;;25.40;;
64291;SDS011;50628;51.008;13.658;2023-02-15T00:43:54;38.30;;;25.47;;
64291;SDS011;50628;51.008;13.658;2023-02-15T00:48:58;45.20;;;27.00;;
64291;SDS011;50628;51.008;13.658;2023-02-15T00:53:59;43.17;;;26.57;;
64291;SDS011;50628;51.008;13.658;2023-02-15T00:59:03;49.33;;;26.03;;
64291;SDS011;50628;51.008;13.658;2023-02-15T01:04:06;41.10;;;24.47;;
64291;SDS011;50628;51.008;13.658;2023-02-15T01:09:08;37.80;;;23.77;;
64291;SDS011;50628;51.008;13.658;2023-02-15T01:14:10;36.40;;;24.13;;
64291;SDS011;50628;51.008;13.658;2023-02-15T01:19:14;31.37;;;21.73;;
64291;SDS011;50628;51.008;13.658;2023-02-15T01:24:16;35.97;;;23.87;;
64291;SDS011;50628;51.008;13.658;2023-02-15T01:29:18;35.43;;;21.33;;
64291;SDS011;50628;51.008;13.658;2023-02-15T01:34:22;32.13;;;21.63;;
64291;SDS011;50628;51.008;13.658;2023-02-15T01:39:24;38.83;;;25.30;;
64291;SDS011;50628;51.008;13.658;2023-02-15T01:50:00;42.23;;;27.77;;
64291;SDS011;50628;51.008;13.658;2023-02-15T01:55:09;48.20;;;27.97;;
64291;SDS011;50628;51.008;13.658;2023-02-15T02:00:13;48.20;;;28.30;;
64291;SDS011;50628;51.008;13.658;2023-02-15T02:05:22;39.20;;;25.97;;
64291;SDS011;50628;51.008;13.658;2023-02-15T02:10:24;42.33;;;25.90;;
64291;SDS011;50628;51.008;13.658;2023-02-15T02:15:28;34.70;;;20.83;;
64291;SDS011;50628;51.008;13.658;2023-02-15T02:21:05;37.87;;;22.93;;
64291;SDS011;50628;51.008;13.658;2023-02-15T02:26:39;33.97;;;21.70;;
64291;SDS011;50628;51.008;13.658;2023-02-15T02:32:13;36.80;;;21.67;;
64291;SDS011;50628;51.008;13.658;2023-02-15T02:37:40;34.90;;;20.67;;
64291;SDS011;50628;51.008;13.658;2023-02-15T02:42:49;30.67;;;20.03;;
64291;SDS011;50628;51.008;13.658;2023-02-15T02:47:58;32.10;;;20.17;;
64291;SDS011;50628;51.008;13.658;2023-02-15T02:53:06;30.50;;;18.80;;
64291;SDS011;50628;51.008;13.658;2023-02-15T02:58:09;31.43;;;18.77;;
64291;SDS011;50628;51.008;13.658;2023-02-15T03:03:16;28.67;;;19.50;;
64291;SDS011;50628;51.008;13.658;2023-02-15T03:08:25;32.40;;;20.23;;
64291;SDS011;50628;51.008;13.658;2023-02-15T03:13:31;29.03;;;17.67;;
64291;SDS011;50628;51.008;13.658;2023-02-15T03:18:35;32.47;;;17.37;;
64291;SDS011;50628;51.008;13.658;2023-02-15T03:23:41;26.47;;;16.37;;
64291;SDS011;50628;51.008;13.658;2023-02-15T03:28:45;27.57;;;17.00;;
64291;SDS011;50628;51.008;13.658;2023-02-15T03:33:52;25.60;;;16.77;;
64291;SDS011;50628;51.008;13.658;2023-02-15T03:38:59;25.00;;;16.30;;
64291;SDS011;50628;51.008;13.658;2023-02-15T03:44:12;27.03;;;16.87;;
64291;SDS011;50628;51.008;13.658;2023-02-15T03:49:19;33.10;;;18.57;;
64291;SDS011;50628;51.008;13.658;2023-02-15T03:54:27;28.40;;;18.47;;
64291;SDS011;50628;51.008;13.658;2023-02-15T03:59:47;31.47;;;18.10;;
64291;SDS011;50628;51.008;13.658;2023-02-15T04:05:12;23.83;;;16.30;;
64291;SDS011;50628;51.008;13.658;2023-02-15T04:10:15;32.63;;;17.53;;
64291;SDS011;50628;51.008;13.658;2023-02-15T04:15:34;24.33;;;15.87;;
64291;SDS011;50628;51.008;13.658;2023-02-15T04:20:54;21.10;;;12.33;;
64291;SDS011;50628;51.008;13.658;2023-02-15T04:26:14;25.57;;;15.47;;
64291;SDS011;50628;51.008;13.658;2023-02-15T04:31:16;24.53;;;15.00;;
64291;SDS011;50628;51.008;13.658;2023-02-15T04:36:18;22.37;;;14.40;;
64291;SDS011;50628;51.008;13.658;2023-02-15T04:41:21;22.93;;;15.00;;
64291;SDS011;50628;51.008;13.658;2023-02-15T04:46:23;20.93;;;13.30;;
64291;SDS011;50628;51.008;13.658;2023-02-15T04:51:25;27.03;;;14.70;;
64291;SDS011;50628;51.008;13.658;2023-02-15T04:56:29;27.17;;;15.53;;
64291;SDS011;50628;51.008;13.658;2023-02-15T05:01:31;27.40;;;15.97;;
64291;SDS011;50628;51.008;13.658;2023-02-15T05:06:33;24.00;;;15.87;;
64291;SDS011;50628;51.008;13.658;2023-02-15T05:11:36;28.07;;;15.07;;
64291;SDS011;50628;51.008;13.658;2023-02-15T05:16:38;24.97;;;16.07;;
64291;SDS011;50628;51.008;13.658;2023-02-15T05:21:40;24.90;;;13.97;;
64291;SDS011;50628;51.008;13.658;2023-02-15T05:26:43;20.53;;;13.57;;
64291;SDS011;50628;51.008;13.658;2023-02-15T05:32:02;20.47;;;12.53;;
64291;SDS011;50628;51.008;13.658;2023-02-15T05:37:05;20.07;;;13.13;;
64291;SDS011;50628;51.008;13.658;2023-02-15T05:42:09;19.03;;;12.87;;
64291;SDS011;50628;51.008;13.658;2023-02-15T05:47:10;25.37;;;14.23;;
64291;SDS011;50628;51.008;13.658;2023-02-15T05:52:12;25.23;;;13.43;;
64291;SDS011;50628;51.008;13.658;2023-02-15T05:57:16;31.10;;;13.60;;
64291;SDS011;50628;51.008;13.658;2023-02-15T06:02:17;27.40;;;13.07;;
64291;SDS011;50628;51.008;13.658;2023-02-15T06:07:19;20.47;;;13.47;;
64291;SDS011;50628;51.008;13.658;2023-02-15T06:12:23;23.10;;;12.17;;
64291;SDS011;50628;51.008;13.658;2023-02-15T06:17:25;21.93;;;14.70;;
64291;SDS011;50628;51.008;13.658;2023-02-15T06:22:26;23.47;;;15.23;;
64291;SDS011;50628;51.008;13.658;2023-02-15T06:27:30;22.57;;;14.40;;
64291;SDS011;50628;51.008;13.658;2023-02-15T06:32:31;27.00;;;12.10;;
64291;SDS011;50628;51.008;13.658;2023-02-15T06:37:33;24.30;;;13.00;;
64291;SDS011;50628;51.008;13.658;2023-02-15T06:42:37;28.70;;;11.23;;
64291;SDS011;50628;51.008;13.658;2023-02-15T06:47:38;35.20;;;15.97;;
64291;SDS011;50628;51.008;13.658;2023-02-15T06:52:40;23.67;;;14.33;;
64291;SDS011;50628;51.008;13.658;2023-02-15T06:57:43;31.70;;;14.57;;
64291;SDS011;50628;51.008;13.658;2023-02-15T07:02:45;23.07;;;14.70;;
64291;SDS011;50628;51.008;13.658;2023-02-15T07:07:47;22.57;;;13.90;;
64291;SDS011;50628;51.008;13.658;2023-02-15T07:12:50;27.80;;;14.40;;
64291;SDS011;50628;51.008;13.658;2023-02-15T07:17:52;23.70;;;13.60;;
64291;SDS011;50628;51.008;13.658;2023-02-15T07:22:54;23.90;;;13.30;;
64291;SDS011;50628;51.008;13.658;2023-02-15T07:27:58;22.30;;;14.43;;
64291;SDS011;50628;51.008;13.658;2023-02-15T07:33:00;17.83;;;12.43;;
64291;SDS011;50628;51.008;13.658;2023-02-15T07:38:19;21.07;;;12.13;;
64291;SDS011;50628;51.008;13.658;2023-02-15T07:43:23;28.63;;;13.93;;
64291;SDS011;50628;51.008;13.658;2023-02-15T07:48:25;20.23;;;12.03;;
64291;SDS011;50628;51.008;13.658;2023-02-15T07:53:27;25.60;;;12.43;;
64291;SDS011;50628;51.008;13.658;2023-02-15T07:58:30;19.63;;;12.03;;
64291;SDS011;50628;51.008;13.658;2023-02-15T08:03:46;17.73;;;11.20;;
64291;SDS011;50628;51.008;13.658;2023-02-15T08:08:48;16.43;;;10.80;;
64291;SDS011;50628;51.008;13.658;2023-02-15T08:13:51;13.07;;;9.10;;
64291;SDS011;50628;51.008;13.658;2023-02-15T08:18:55;13.80;;;9.43;;
64291;SDS011;50628;51.008;13.658;2023-02-15T08:23:57;14.20;;;10.10;;
64291;SDS011;50628;51.008;13.658;2023-02-15T08:29:02;17.20;;;11.30;;
64291;SDS011;50628;51.008;13.658;2023-02-15T08:34:04;24.37;;;13.90;;
64291;SDS011;50628;51.008;13.658;2023-02-15T08:39:06;21.20;;;11.87;;
64291;SDS011;50628;51.008;13.658;2023-02-15T08:44:10;17.50;;;11.73;;
64291;SDS011;50628;51.008;13.658;2023-02-15T08:49:13;18.07;;;12.83;;
64291;SDS011;50628;51.008;13.658;2023-02-15T08:54:19;22.63;;;13.90;;
64291;SDS011;50628;51.008;13.658;2023-02-15T08:59:23;24.97;;;13.27;;
64291;SDS011;50628;51.008;13.658;2023-02-15T09:04:27;18.30;;;11.77;;
64291;SDS011;50628;51.008;13.658;2023-02-15T09:09:29;23.00;;;12.80;;
64291;SDS011;50628;51.008;13.658;2023-02-15T09:14:32;20.33;;;13.43;;
64291;SDS011;50628;51.008;13.658;2023-02-15T09:19:35;21.00;;;13.67;;
64291;SDS011;50628;51.008;13.658;2023-02-15T09:24:36;24.83;;;12.87;;
64291;SDS011;50628;51.008;13.658;2023-02-15T09:29:40;23.57;;;12.67;;
64291;SDS011;50628;51.008;13.658;2023-02-15T09:34:41;20.47;;;12.67;;
64291;SDS011;50628;51.008;13.658;2023-02-15T09:39:44;20.47;;;12.50;;
64291;SDS011;50628;51.008;13.658;2023-02-15T09:45:00;19.77;;;12.40;;
64291;SDS011;50628;51.008;13.658;2023-02-15T09:50:14;20.47;;;12.07;;
64291;SDS011;50628;51.008;13.658;2023-02-15T09:55:30;28.13;;;11.93;;
64291;SDS011;50628;51.008;13.658;2023-02-15T10:00:44;22.37;;;13.73;;
64291;SDS011;50628;51.008;13.658;2023-02-15T10:05:54;21.53;;;10.47;;
64291;SDS011;50628;51.008;13.658;2023-02-15T10:11:09;21.67;;;12.60;;
64291;SDS011;50628;51.008;13.658;2023-02-15T10:16:37;18.33;;;10.53;;
64291;SDS011;50628;51.008;13.658;2023-02-15T10:21:49;17.23;;;9.40;;
64291;SDS011;50628;51.008;13.658;2023-02-15T10:27:01;27.50;;;10.23;;
64291;SDS011;50628;51.008;13.658;2023-02-15T10:32:16;17.37;;;9.77;;
64291;SDS011;50628;51.008;13.658;2023-02-15T10:37:31;19.07;;;10.67;;
64291;SDS011;50628;51.008;13.658;2023-02-15T10:42:48;20.97;;;10.40;;
64291;SDS011;50628;51.008;13.658;2023-02-15T10:48:04;17.07;;;10.70;;
64291;SDS011;50628;51.008;13.658;2023-02-15T10:53:27;16.27;;;10.57;;
64291;SDS011;50628;51.008;13.658;2023-02-15T10:58:44;19.47;;;11.20;;
64291;SDS011;50628;51.008;13.658;2023-02-15T11:09:38;20.70;;;13.87;;
64291;SDS011;50628;51.008;13.658;2023-02-15T11:14:44;28.33;;;12.70;;
64291;SDS011;50628;51.008;13.658;2023-02-15T11:19:56;28.70;;;13.67;;
64291;SDS011;50628;51.008;13.658;2023-02-15T11:25:10;29.30;;;13.37;;
64291;SDS011;50628;51.008;13.658;2023-02-15T11:30:19;20.00;;;12.20;;
64291;SDS011;50628;51.008;13.658;2023-02-15T11:35:25;34.70;;;14.17;;
64291;SDS011;50628;51.008;13.658;2023-02-15T11:40:32;42.57;;;14.33;;
64291;SDS011;50628;51.008;13.658;2023-02-15T11:45:36;22.57;;;11.93;;
64291;SDS011;50628;51.008;13.658;2023-02-15T11:50:48;22.60;;;12.73;;
64291;SDS011;50628;51.008;13.658;2023-02-15T11:55:50;16.73;;;11.40;;
64291;SDS011;50628;51.008;13.658;2023-02-15T12:00:53;20.03;;;11.57;;
64291;SDS011;50628;51.008;13.658;2023-02-15T12:06:01;26.20;;;12.20;;
64291;SDS011;50628;51.008;13.658;2023-02-15T12:11:06;58.73;;;14.57;;
64291;SDS011;50628;51.008;13.658;2023-02-15T12:16:12;22.80;;;9.83;;
64291;SDS011;50628;51.008;13.658;2023-02-15T12:21:19;29.33;;;12.63;;
64291;SDS011;50628;51.008;13.658;2023-02-15T12:26:28;23.20;;;9.40;;
64291;SDS011;50628;51.008;13.658;2023-02-15T12:31:32;28.27;;;10.37;;
64291;SDS011;50628;51.008;13.658;2023-02-15T12:36:43;42.33;;;12.70;;
64291;SDS011;50628;51.008;13.658;2023-02-15T12:41:57;37.80;;;11.80;;
64291;SDS011;50628;51.008;13.658;2023-02-15T12:47:02;21.63;;;9.90;;
64291;SDS011;50628;51.008;13.658;2023-02-15T12:52:22;20.00;;;11.17;;
64291;SDS011;50628;51.008;13.658;2023-02-15T12:57:27;31.77;;;14.07;;
64291;SDS011;50628;51.008;13.658;2023-02-15T13:02:34;23.53;;;12.40;;
64291;SDS011;50628;51.008;13.658;2023-02-15T13:07:45;20.23;;;12.73;;
64291;SDS011;50628;51.008;13.658;2023-02-15T13:12:51;51.90;;;15.80;;
64291;SDS011;50628;51.008;13.658;2023-02-15T13:17:55;43.27;;;13.50;;
64291;SDS011;50628;51.008;13.658;2023-02-15T13:22:59;20.53;;;11.87;;
64291;SDS011;50628;51.008;13.658;2023-02-15T13:28:05;17.53;;;11.47;;
64291;SDS011;50628;51.008;13.658;2023-02-15T13:33:14;20.20;;;12.27;;
64291;SDS011;50628;51.008;13.658;2023-02-15T13:38:38;24.80;;;12.77;;
64291;SDS011;50628;51.008;13.658;2023-02-15T13:44:08;25.87;;;12.70;;
64291;SDS011;50628;51.008;13.658;2023-02-15T13:49:18;19.47;;;11.87;;
64291;SDS011;50628;51.008;13.658;2023-02-15T13:54:39;23.53;;;12.63;;
64291;SDS011;50628;51.008;13.658;2023-02-15T13:59:54;28.13;;;13.87;;
64291;SDS011;50628;51.008;13.658;2023-02-15T14:10:46;23.77;;;13.67;;
64291;SDS011;50628;51.008;13.658;2023-02-15T14:15:55;26.13;;;13.50;;
64291;SDS011;50628;51.008;13.658;2023-02-15T14:21:03;23.17;;;12.50;;
64291;SDS011;50628;51.008;13.658;2023-02-15T14:26:14;20.90;;;12.90;;
64291;SDS011;50628;51.008;13.658;2023-02-15T14:31:26;35.20;;;20.17;;
64291;SDS011;50628;51.008;13.658;2023-02-15T14:36:32;30.10;;;13.73;;
64291;SDS011;50628;51.008;13.658;2023-02-15T14:41:37;18.27;;;13.37;;
64291;SDS011;50628;51.008;13.658;2023-02-15T14:46:46;18.30;;;12.40;;
64291;SDS011;50628;51.008;13.658;2023-02-15T14:51:58;18.83;;;12.43;;
64291;SDS011;50628;51.008;13.658;2023-02-15T14:57:22;25.67;;;14.17;;
64291;SDS011;50628;51.008;13.658;2023-02-15T15:02:26;27.83;;;14.17;;
64291;SDS011;50628;51.008;13.658;2023-02-15T15:07:35;33.90;;;15.13;;
64291;SDS011;50628;51.008;13.658;2023-02-15T15:12:44;40.70;;;17.27;;
64291;SDS011;50628;51.008;13.658;2023-02-15T15:17:59;33.07;;;16.27;;
64291;SDS011;50628;51.008;13.658;2023-02-15T15:29:00;43.20;;;17.60;;
64291;SDS011;50628;51.008;13.658;2023-02-15T15:39:52;25.60;;;16.23;;
64291;SDS011;50628;51.008;13.658;2023-02-15T15:45:25;26.63;;;16.03;;
64291;SDS011;50628;51.008;13.658;2023-02-15T15:50:39;27.40;;;17.10;;
64291;SDS011;50628;51.008;13.658;2023-02-15T15:55:42;32.77;;;19.03;;
64291;SDS011;50628;51.008;13.658;2023-02-15T16:00:49;53.93;;;21.90;;
64291;SDS011;50628;51.008;13.658;2023-02-15T16:05:55;36.50;;;19.43;;
64291;SDS011;50628;51.008;13.658;2023-02-15T16:11:00;55.20;;;20.80;;
64291;SDS011;50628;51.008;13.658;2023-02-15T16:16:11;37.70;;;19.60;;
64291;SDS011;50628;51.008;13.658;2023-02-15T16:21:16;44.63;;;20.27;;
64291;SDS011;50628;51.008;13.658;2023-02-15T16:26:24;45.60;;;20.80;;
64291;SDS011;50628;51.008;13.658;2023-02-15T16:31:57;40.93;;;20.43;;
64291;SDS011;50628;51.008;13.658;2023-02-15T16:37:12;53.70;;;22.33;;
64291;SDS011;50628;51.008;13.658;2023-02-15T16:42:15;49.60;;;19.77;;
64291;SDS011;50628;51.008;13.658;2023-02-15T16:47:21;69.87;;;21.90;;
64291;SDS011;50628;51.008;13.658;2023-02-15T16:52:27;43.47;;;21.33;;
64291;SDS011;50628;51.008;13.658;2023-02-15T16:57:32;48.37;;;21.60;;
64291;SDS011;50628;51.008;13.658;2023-02-15T17:02:38;39.90;;;22.50;;
64291;SDS011;50628;51.008;13.658;2023-02-15T17:07:40;38.43;;;19.97;;
64291;SDS011;50628;51.008;13.658;2023-02-15T17:12:43;35.90;;;19.10;;
64291;SDS011;50628;51.008;13.658;2023-02-15T17:17:48;46.57;;;24.40;;
64291;SDS011;50628;51.008;13.658;2023-02-15T17:22:50;45.87;;;20.83;;
64291;SDS011;50628;51.008;13.658;2023-02-15T17:27:53;41.97;;;20.30;;
64291;SDS011;50628;51.008;13.658;2023-02-15T17:32:59;41.27;;;20.97;;
64291;SDS011;50628;51.008;13.658;2023-02-15T17:38:04;43.80;;;21.17;;
64291;SDS011;50628;51.008;13.658;2023-02-15T17:43:16;43.20;;;21.40;;
64291;SDS011;50628;51.008;13.658;2023-02-15T17:48:20;33.77;;;19.17;;
64291;SDS011;50628;51.008;13.658;2023-02-15T17:53:24;35.20;;;21.13;;
64291;SDS011;50628;51.008;13.658;2023-02-15T17:58:26;34.83;;;18.60;;
64291;SDS011;50628;51.008;13.658;2023-02-15T18:03:37;39.40;;;19.87;;
64291;SDS011;50628;51.008;13.658;2023-02-15T18:08:59;54.63;;;21.30;;
64291;SDS011;50628;51.008;13.658;2023-02-15T18:14:18;36.30;;;19.87;;
64291;SDS011;50628;51.008;13.658;2023-02-15T18:19:22;52.30;;;29.63;;
64291;SDS011;50628;51.008;13.658;2023-02-15T18:24:26;59.63;;;26.57;;
64291;SDS011;50628;51.008;13.658;2023-02-15T18:29:28;43.27;;;26.33;;
64291;SDS011;50628;51.008;13.658;2023-02-15T18:34:32;38.40;;;23.83;;
64291;SDS011;50628;51.008;13.658;2023-02-15T18:39:37;35.40;;;23.30;;
64291;SDS011;50628;51.008;13.658;2023-02-15T18:44:42;37.73;;;22.73;;
64291;SDS011;50628;51.008;13.658;2023-02-15T18:49:46;35.03;;;21.53;;
64291;SDS011;50628;51.008;13.658;2023-02-15T18:54:54;37.43;;;22.23;;
64291;SDS011;50628;51.008;13.658;2023-02-15T19:00:02;38.27;;;25.33;;
64291;SDS011;50628;51.008;13.658;2023-02-15T19:05:07;37.97;;;24.67;;
64291;SDS011;50628;51.008;13.658;2023-02-15T19:10:11;43.57;;;26.50;;
64291;SDS011;50628;51.008;13.658;2023-02-15T19:15:17;43.53;;;25.83;;
64291;SDS011;50628;51.008;13.658;2023-02-15T19:20:24;46.70;;;27.50;;
64291;SDS011;50628;51.008;13.658;2023-02-15T19:25:29;38.17;;;23.50;;
64291;SDS011;50628;51.008;13.658;2023-02-15T19:30:36;37.67;;;24.23;;
64291;SDS011;50628;51.008;13.658;2023-02-15T19:35:39;39.90;;;26.57;;
64291;SDS011;50628;51.008;13.658;2023-02-15T19:40:41;48.13;;;30.53;;
64291;SDS011;50628;51.008;13.658;2023-02-15T19:45:43;45.57;;;24.80;;
64291;SDS011;50628;51.008;13.658;2023-02-15T19:50:47;41.47;;;25.00;;
64291;SDS011;50628;51.008;13.658;2023-02-15T19:55:49;47.13;;;26.93;;
64291;SDS011;50628;51.008;13.658;2023-02-15T20:00:52;41.43;;;27.60;;
64291;SDS011;50628;51.008;13.658;2023-02-15T20:05:55;38.03;;;24.50;;
64291;SDS011;50628;51.008;13.658;2023-02-15T20:10:57;45.10;;;25.97;;
64291;SDS011;50628;51.008;13.658;2023-02-15T20:15:59;37.57;;;21.87;;
64291;SDS011;50628;51.008;13.658;2023-02-15T20:21:05;36.73;;;23.93;;
64291;SDS011;50628;51.008;13.658;2023-02-15T20:26:14;46.37;;;24.67;;
64291;SDS011;50628;51.008;13.658;2023-02-15T20:31:17;38.03;;;23.23;;
64291;SDS011;50628;51.008;13.658;2023-02-15T20:36:22;40.43;;;24.73;;
64291;SDS011;50628;51.008;13.658;2023-02-15T20:41:24;43.60;;;24.40;;
64291;SDS011;50628;51.008;13.658;2023-02-15T20:46:39;38.40;;;23.80;;
64291;SDS011;50628;51.008;13.658;2023-02-15T20:51:42;46.40;;;24.97;;
64291;SDS011;50628;51.008;13.658;2023-02-15T20:56:46;42.70;;;22.40;;
64291;SDS011;50628;51.008;13.658;2023-02-15T21:01:48;42.80;;;24.30;;
64291;SDS011;50628;51.008;13.658;2023-02-15T21:06:53;39.70;;;23.17;;
64291;SDS011;50628;51.008;13.658;2023-02-15T21:11:56;38.20;;;25.17;;
64291;SDS011;50628;51.008;13.658;2023-02-15T21:17:01;38.83;;;23.00;;
64291;SDS011;50628;51.008;13.658;2023-02-15T21:22:05;39.33;;;26.50;;
64291;SDS011;50628;51.008;13.658;2023-02-15T21:27:08;39.77;;;24.80;;
64291;SDS011;50628;51.008;13.658;2023-02-15T21:32:13;39.00;;;23.90;;
64291;SDS011;50628;51.008;13.658;2023-02-15T21:37:24;39.77;;;23.77;;
64291;SDS011;50628;51.008;13.658;2023-02-15T21:42:30;37.23;;;22.70;;
64291;SDS011;50628;51.008;13.658;2023-02-15T21:47:49;59.00;;;23.23;;
64291;SDS011;50628;51.008;13.658;2023-02-15T21:52:53;36.40;;;20.43;;
64291;SDS011;50628;51.008;13.658;2023-02-15T21:57:55;33.83;;;21.80;;
64291;SDS011;50628;51.008;13.658;2023-02-15T22:02:57;45.90;;;25.97;;
64291;SDS011;50628;51.008;13.658;2023-02-15T22:08:02;33.90;;;20.83;;
64291;SDS011;50628;51.008;13.658;2023-02-15T22:13:11;33.37;;;20.30;;
64291;SDS011;50628;51.008;13.658;2023-02-15T22:18:19;39.70;;;20.17;;
64291;SDS011;50628;51.008;13.658;2023-02-15T22:23:24;34.10;;;20.70;;
64291;SDS011;50628;51.008;13.658;2023-02-15T22:28:26;34.57;;;21.40;;
64291;SDS011;50628;51.008;13.658;2023-02-15T22:33:34;31.67;;;21.17;;
64291;SDS011;50628;51.008;13.658;2023-02-15T22:38:37;36.53;;;22.57;;
64291;SDS011;50628;51.008;13.658;2023-02-15T22:43:40;32.57;;;21.80;;
64291;SDS011;50628;51.008;13.658;2023-02-15T22:48:44;36.70;;;21.67;;
64291;SDS011;50628;51.008;13.658;2023-02-15T22:53:49;33.53;;;20.40;;
64291;SDS011;50628;51.008;13.658;2023-02-15T22:58:53;35.27;;;21.47;;
64291;SDS011;50628;51.008;13.658;2023-02-15T23:04:04;31.50;;;20.90;;
64291;SDS011;50628;51.008;13.658;2023-02-15T23:09:09;35.07;;;21.67;;
64291;SDS011;50628;51.008;13.658;2023-02-15T23:14:15;33.80;;;21.23;;
64291;SDS011;50628;51.008;13.658;2023-02-15T23:19:25;34.77;;;21.53;;
64291;SDS011;50628;51.008;13.658;2023-02-15T23:24:29;37.73;;;24.70;;
64291;SDS011;50628;51.008;13.658;2023-02-15T23:29:33;35.63;;;22.20;;
64291;SDS011;50628;51.008;13.658;2023-02-15T23:34:35;25.00;;;18.30;;
64291;SDS011;50628;51.008;13.658;2023-02-15T23:39:38;39.93;;;26.10;;
64291;SDS011;50628;51.008;13.658;2023-02-15T23:44:57;34.17;;;23.73;;
64291;SDS011;50628;51.008;13.658;2023-02-15T23:49:59;38.93;;;23.07;;
64291;SDS011;50628;51.008;13.658;2023-02-15T23:55:03;39.37;;;18.87;;
